createdAt,value
2017-11-08T00:01:24.148Z,8.30
2017-11-08T00:03:51.759Z,8.30
2017-11-08T00:06:19.995Z,8.40
2017-11-08T00:08:47.457Z,8.30
2017-11-08T00:11:14.898Z,8.40
2017-11-08T00:13:42.377Z,8.40
2017-11-08T00:16:10.583Z,8.40
2017-11-08T00:18:38.028Z,8.40
2017-11-08T00:21:05.574Z,8.40
2017-11-08T00:23:35.967Z,8.40
2017-11-08T00:26:04.192Z,8.40
2017-11-08T00:28:31.663Z,8.40
2017-11-08T00:31:00.022Z,8.40
2017-11-08T00:33:27.458Z,8.50
2017-11-08T00:35:54.952Z,8.50
2017-11-08T00:38:22.408Z,8.50
2017-11-08T00:40:49.880Z,8.50
2017-11-08T00:43:18.125Z,8.40
2017-11-08T00:45:46.338Z,8.50
2017-11-08T00:48:13.814Z,8.50
2017-11-08T00:50:41.265Z,8.40
2017-11-08T00:53:09.972Z,8.40
2017-11-08T00:55:38.174Z,8.50
2017-11-08T00:58:05.636Z,8.50
2017-11-08T01:00:34.776Z,8.50
2017-11-08T01:03:02.252Z,8.50
2017-11-08T01:05:29.692Z,8.50
2017-11-08T01:07:57.905Z,8.40
2017-11-08T01:10:25.361Z,8.40
2017-11-08T01:12:52.809Z,8.40
2017-11-08T01:15:20.275Z,8.50
2017-11-08T01:17:47.719Z,8.50
2017-11-08T01:20:15.172Z,8.50
2017-11-08T01:22:42.604Z,8.50
2017-11-08T01:25:10.108Z,8.50
2017-11-08T01:27:38.319Z,8.40
2017-11-08T01:30:05.799Z,8.40
2017-11-08T01:32:33.268Z,8.50
2017-11-08T01:35:00.745Z,8.50
2017-11-08T01:37:33.728Z,8.50
2017-11-08T01:40:01.951Z,8.40
2017-11-08T01:42:29.407Z,8.40
2017-11-08T01:44:56.858Z,8.40
2017-11-08T01:47:24.317Z,8.40
2017-11-08T01:49:53.642Z,8.40
2017-11-08T01:52:25.333Z,8.40
2017-11-08T01:54:52.771Z,8.40
2017-11-08T01:57:20.237Z,8.40
2017-11-08T01:59:47.688Z,8.40
2017-11-08T02:02:15.161Z,8.40
2017-11-08T02:04:42.676Z,8.40
2017-11-08T02:07:10.128Z,8.40
2017-11-08T02:09:37.616Z,8.40
2017-11-08T02:12:05.056Z,8.50
2017-11-08T02:14:32.526Z,8.50
2017-11-08T02:16:59.962Z,8.50
2017-11-08T02:19:27.433Z,8.40
2017-11-08T02:21:54.873Z,8.40
2017-11-08T02:24:22.317Z,8.50
2017-11-08T02:26:52.586Z,8.50
2017-11-08T02:29:20.084Z,8.40
2017-11-08T02:31:47.533Z,8.40
2017-11-08T02:34:14.995Z,8.40
2017-11-08T02:36:42.475Z,8.40
2017-11-08T02:39:09.918Z,8.50
2017-11-08T02:41:38.127Z,8.50
2017-11-08T02:44:05.582Z,8.50
2017-11-08T02:46:33.805Z,8.50
2017-11-08T02:49:01.270Z,8.50
2017-11-08T02:51:29.557Z,8.50
2017-11-08T02:53:57.025Z,8.50
2017-11-08T02:56:25.263Z,8.50
2017-11-08T02:58:52.688Z,8.40
2017-11-08T03:01:20.164Z,8.50
2017-11-08T03:03:47.620Z,8.40
2017-11-08T03:06:15.077Z,8.50
2017-11-08T03:08:42.574Z,8.60
2017-11-08T03:11:10.053Z,8.50
2017-11-08T03:13:38.285Z,8.50
2017-11-08T03:16:06.299Z,8.50
2017-11-08T03:18:33.909Z,8.40
2017-11-08T03:21:01.372Z,8.40
2017-11-08T03:23:28.814Z,8.50
2017-11-08T03:25:56.263Z,8.50
2017-11-08T03:28:23.713Z,8.50
2017-11-08T03:30:51.963Z,8.40
2017-11-08T03:33:19.480Z,8.40
2017-11-08T03:35:47.721Z,8.40
2017-11-08T03:38:15.160Z,8.40
2017-11-08T03:40:43.396Z,8.50
2017-11-08T03:43:10.852Z,8.40
2017-11-08T03:45:38.313Z,8.50
2017-11-08T03:48:05.773Z,8.40
2017-11-08T03:50:34.007Z,8.40
2017-11-08T03:53:01.544Z,8.40
2017-11-08T03:55:28.984Z,8.40
2017-11-08T03:57:56.456Z,8.40
2017-11-08T04:00:23.900Z,8.40
2017-11-08T04:02:51.345Z,8.40
2017-11-08T04:05:18.802Z,8.40
2017-11-08T04:07:46.232Z,8.40
2017-11-08T04:10:13.703Z,8.40
2017-11-08T04:12:41.150Z,8.40
2017-11-08T04:15:08.611Z,8.40
2017-11-08T04:17:36.821Z,8.50
2017-11-08T04:20:04.328Z,8.40
2017-11-08T04:22:31.773Z,8.40
2017-11-08T04:24:59.220Z,8.50
2017-11-08T04:27:27.436Z,8.30
2017-11-08T04:29:54.889Z,8.20
2017-11-08T04:32:23.092Z,8.30
2017-11-08T04:34:51.329Z,8.40
2017-11-08T04:37:18.783Z,8.40
2017-11-08T04:39:46.241Z,8.40
2017-11-08T04:42:13.805Z,8.40
2017-11-08T04:44:42.085Z,8.30
2017-11-08T04:47:10.310Z,8.10
2017-11-08T04:49:37.771Z,8.10
2017-11-08T04:52:05.995Z,8.30
2017-11-08T04:54:33.450Z,8.30
2017-11-08T04:57:00.947Z,8.30
2017-11-08T04:59:28.384Z,8.40
2017-11-08T05:01:56.615Z,8.30
2017-11-08T05:04:24.118Z,8.30
2017-11-08T05:06:51.593Z,8.30
2017-11-08T05:09:19.025Z,8.40
2017-11-08T05:11:46.468Z,8.40
2017-11-08T05:14:13.940Z,8.30
2017-11-08T05:16:42.141Z,8.40
2017-11-08T05:19:10.365Z,8.40
2017-11-08T05:21:37.918Z,8.40
2017-11-08T05:24:06.198Z,8.50
2017-11-08T05:26:34.396Z,8.50
2017-11-08T05:29:01.857Z,8.50
2017-11-08T05:31:30.059Z,8.50
2017-11-08T05:33:58.303Z,8.50
2017-11-08T05:36:25.764Z,8.50
2017-11-08T05:38:53.232Z,8.40
2017-11-08T05:41:22.161Z,8.40
2017-11-08T05:43:50.401Z,8.40
2017-11-08T05:46:17.854Z,8.40
2017-11-08T05:48:45.308Z,8.50
2017-11-08T05:51:12.768Z,8.50
2017-11-08T05:53:40.285Z,8.40
2017-11-08T05:56:07.759Z,8.50
2017-11-08T05:58:35.205Z,8.40
2017-11-08T06:01:02.652Z,8.40
2017-11-08T06:03:30.207Z,8.40
2017-11-08T06:05:58.428Z,8.40
2017-11-08T06:08:25.892Z,8.40
2017-11-08T06:10:53.335Z,8.40
2017-11-08T06:13:22.049Z,8.50
2017-11-08T06:15:50.257Z,8.50
2017-11-08T06:18:17.761Z,8.50
2017-11-08T06:20:45.206Z,8.60
2017-11-08T06:23:12.648Z,8.60
2017-11-08T06:25:40.128Z,8.50
2017-11-08T06:28:07.576Z,8.50
2017-11-08T06:30:35.039Z,8.50
2017-11-08T06:33:02.484Z,8.50
2017-11-08T06:35:29.944Z,8.60
2017-11-08T06:37:58.144Z,8.60
2017-11-08T06:40:25.603Z,8.60
2017-11-08T06:42:53.072Z,8.70
2017-11-08T06:45:21.281Z,8.70
2017-11-08T06:47:48.756Z,8.70
2017-11-08T06:50:16.236Z,8.70
2017-11-08T06:52:43.705Z,8.70
2017-11-08T06:55:11.906Z,8.80
2017-11-08T06:57:39.357Z,8.70
2017-11-08T07:00:09.729Z,8.70
2017-11-08T07:02:37.195Z,8.80
2017-11-08T07:05:04.649Z,8.80
2017-11-08T07:07:32.912Z,8.80
2017-11-08T07:10:00.369Z,8.80
2017-11-08T07:12:27.829Z,8.80
2017-11-08T07:14:55.280Z,8.80
2017-11-08T07:17:22.760Z,8.80
2017-11-08T07:19:50.308Z,8.90
2017-11-08T07:22:17.772Z,8.90
2017-11-08T07:24:45.258Z,8.90
2017-11-08T07:27:12.711Z,8.90
2017-11-08T07:29:40.215Z,8.80
2017-11-08T07:32:08.422Z,8.90
2017-11-08T07:34:35.925Z,8.90
2017-11-08T07:37:03.389Z,8.80
2017-11-08T07:39:30.906Z,9.00
2017-11-08T07:41:58.406Z,9.00
2017-11-08T07:44:25.892Z,8.90
2017-11-08T07:46:54.286Z,8.80
2017-11-08T07:49:21.802Z,8.80
2017-11-08T07:51:49.276Z,8.90
2017-11-08T07:54:19.617Z,8.90
2017-11-08T07:56:47.069Z,8.80
2017-11-08T07:59:14.549Z,8.90
2017-11-08T08:01:42.040Z,8.90
2017-11-08T08:04:09.510Z,8.80
2017-11-08T08:06:37.005Z,8.90
2017-11-08T08:09:11.731Z,9.00
2017-11-08T08:11:39.188Z,9.00
2017-11-08T08:14:06.632Z,9.00
2017-11-08T08:16:34.876Z,9.10
2017-11-08T08:19:02.311Z,9.10
2017-11-08T08:21:30.578Z,9.20
2017-11-08T08:23:58.001Z,9.20
2017-11-08T08:26:30.256Z,9.10
2017-11-08T08:28:58.464Z,9.20
2017-11-08T08:31:25.935Z,9.20
2017-11-08T08:33:53.409Z,9.20
2017-11-08T08:36:21.637Z,9.20
2017-11-08T08:38:49.079Z,9.20
2017-11-08T08:41:16.543Z,9.10
2017-11-08T08:43:44.772Z,9.10
2017-11-08T08:46:12.249Z,9.20
2017-11-08T08:48:39.721Z,9.10
2017-11-08T08:51:07.169Z,9.20
2017-11-08T08:53:35.369Z,9.10
2017-11-08T08:56:02.844Z,9.10
2017-11-08T08:58:30.310Z,9.20
2017-11-08T09:00:57.790Z,9.20
2017-11-08T09:03:25.229Z,9.30
2017-11-08T09:05:52.705Z,9.20
2017-11-08T09:08:20.905Z,9.30
2017-11-08T09:10:48.705Z,9.20
2017-11-08T09:13:16.147Z,9.30
2017-11-08T09:15:43.628Z,9.30
2017-11-08T09:18:11.076Z,9.20
2017-11-08T09:20:38.572Z,9.30
2017-11-08T09:23:06.953Z,9.20
2017-11-08T09:25:34.400Z,9.20
2017-11-08T09:28:01.862Z,9.30
2017-11-08T09:30:30.253Z,9.20
2017-11-08T09:32:57.718Z,9.30
2017-11-08T09:35:25.947Z,9.40
2017-11-08T09:37:53.447Z,9.40
2017-11-08T09:40:23.873Z,9.40
2017-11-08T09:42:51.325Z,9.30
2017-11-08T09:45:19.725Z,9.40
2017-11-08T09:47:47.958Z,9.40
2017-11-08T09:50:15.432Z,9.30
2017-11-08T09:52:42.885Z,9.20
2017-11-08T09:55:10.361Z,9.10
2017-11-08T09:57:37.828Z,9.30
2017-11-08T10:00:05.292Z,9.10
2017-11-08T10:02:34.570Z,9.00
2017-11-08T10:05:02.083Z,9.00
2017-11-08T10:07:29.604Z,9.10
2017-11-08T10:09:57.056Z,9.20
2017-11-08T10:12:24.509Z,9.30
2017-11-08T10:14:51.974Z,9.30
2017-11-08T10:17:20.192Z,9.40
2017-11-08T10:19:47.663Z,9.40
2017-11-08T10:22:15.117Z,9.40
2017-11-08T10:24:42.589Z,9.40
2017-11-08T10:27:10.067Z,9.30
2017-11-08T10:29:38.296Z,9.40
2017-11-08T10:32:06.513Z,9.40
2017-11-08T10:34:33.983Z,9.30
2017-11-08T10:37:01.536Z,9.20
2017-11-08T10:39:29.715Z,9.30
2017-11-08T10:41:57.223Z,9.30
2017-11-08T10:44:24.657Z,9.20
2017-11-08T10:46:52.141Z,9.20
2017-11-08T10:49:21.430Z,9.20
2017-11-08T10:51:48.951Z,9.20
2017-11-08T10:54:17.183Z,9.30
2017-11-08T10:56:44.670Z,9.30
2017-11-08T10:59:17.696Z,9.30
2017-11-08T11:01:45.466Z,9.30
2017-11-08T11:04:12.908Z,9.20
2017-11-08T11:06:40.702Z,9.10
2017-11-08T11:09:08.155Z,9.10
2017-11-08T11:11:35.657Z,9.00
2017-11-08T11:14:08.762Z,9.10
2017-11-08T11:16:36.306Z,9.10
2017-11-08T11:19:04.547Z,9.10
2017-11-08T11:21:32.068Z,9.10
2017-11-08T11:24:03.195Z,9.10
2017-11-08T11:26:34.512Z,9.10
2017-11-08T11:29:02.723Z,9.10
2017-11-08T11:31:30.197Z,9.10
2017-11-08T11:33:57.630Z,9.20
2017-11-08T11:36:25.879Z,9.30
2017-11-08T11:38:55.268Z,9.30
2017-11-08T11:41:22.748Z,9.20
2017-11-08T11:43:50.258Z,9.20
2017-11-08T11:46:17.722Z,9.30
2017-11-08T11:48:50.767Z,9.30
2017-11-08T11:51:23.990Z,9.30
2017-11-08T11:53:52.259Z,9.30
2017-11-08T11:56:19.701Z,9.30
2017-11-08T11:58:47.161Z,9.30
2017-11-08T12:01:14.647Z,9.40
2017-11-08T12:03:42.105Z,9.30
2017-11-08T12:06:09.566Z,9.40
2017-11-08T12:08:37.794Z,9.40
2017-11-08T12:11:05.264Z,9.30
2017-11-08T12:13:32.773Z,9.30
2017-11-08T12:16:00.349Z,9.40
2017-11-08T12:18:27.790Z,9.40
2017-11-08T12:20:55.265Z,9.40
2017-11-08T12:23:22.745Z,9.40
2017-11-08T12:25:50.206Z,9.50
2017-11-08T12:28:18.587Z,9.40
2017-11-08T12:30:46.064Z,9.50
2017-11-08T12:33:13.502Z,9.40
2017-11-08T12:35:40.978Z,9.20
2017-11-08T12:38:08.459Z,9.20
2017-11-08T12:40:36.000Z,9.30
2017-11-08T12:43:03.482Z,9.30
2017-11-08T12:45:30.955Z,9.30
2017-11-08T12:47:58.388Z,9.30
2017-11-08T12:50:28.654Z,9.30
2017-11-08T12:52:56.142Z,9.40
2017-11-08T12:55:23.614Z,9.40
2017-11-08T12:57:51.104Z,9.20
2017-11-08T13:00:18.590Z,9.20
2017-11-08T13:02:46.893Z,9.30
2017-11-08T13:05:14.365Z,9.40
2017-11-08T13:07:41.910Z,9.40
2017-11-08T13:10:09.404Z,9.30
2017-11-08T13:12:36.901Z,9.30
2017-11-08T13:15:04.386Z,9.40
2017-11-08T13:17:32.697Z,9.30
2017-11-08T13:20:01.055Z,9.20
2017-11-08T13:22:28.549Z,9.20
2017-11-08T13:24:56.111Z,9.30
2017-11-08T13:27:23.588Z,9.30
2017-11-08T13:29:51.042Z,9.40
2017-11-08T13:32:18.519Z,9.50
2017-11-08T13:34:45.986Z,9.50
2017-11-08T13:37:14.233Z,9.50
2017-11-08T13:39:48.171Z,9.50
2017-11-08T13:42:22.910Z,9.50
2017-11-08T13:44:50.441Z,9.40
2017-11-08T13:47:18.702Z,9.40
2017-11-08T13:49:46.223Z,9.50
2017-11-08T13:52:13.702Z,9.50
2017-11-08T13:54:41.195Z,9.30
2017-11-08T13:57:08.807Z,9.30
2017-11-08T13:59:36.321Z,9.50
2017-11-08T14:02:04.550Z,9.50
2017-11-08T14:04:32.832Z,9.50
2017-11-08T14:07:01.338Z,9.50
2017-11-08T14:09:28.903Z,9.40
2017-11-08T14:11:56.486Z,9.40
2017-11-08T14:14:25.073Z,9.40
2017-11-08T14:16:52.595Z,9.30
2017-11-08T14:19:20.046Z,9.30
2017-11-08T14:21:52.445Z,9.60
2017-11-08T14:24:20.116Z,9.50
2017-11-08T14:26:53.571Z,9.50
2017-11-08T14:29:21.144Z,9.50
2017-11-08T14:31:48.618Z,9.50
2017-11-08T14:34:16.104Z,9.50
2017-11-08T14:36:43.581Z,9.40
2017-11-08T14:39:11.053Z,9.40
2017-11-08T14:41:38.537Z,9.40
2017-11-08T14:44:06.854Z,9.40
2017-11-08T14:46:34.297Z,9.40
2017-11-08T14:49:01.806Z,9.60
2017-11-08T14:51:33.274Z,9.50
2017-11-08T14:54:00.733Z,9.50
2017-11-08T14:56:28.229Z,9.60
2017-11-08T14:58:56.511Z,9.60
2017-11-08T15:01:24.068Z,9.60
2017-11-08T15:03:51.506Z,9.50
2017-11-08T15:06:18.980Z,9.50
2017-11-08T15:08:47.060Z,9.50
2017-11-08T15:11:16.430Z,9.40
2017-11-08T15:13:43.886Z,9.30
2017-11-08T15:16:11.358Z,9.50
2017-11-08T15:18:38.847Z,9.50
2017-11-08T15:21:06.295Z,9.50
2017-11-08T15:23:33.777Z,9.40
2017-11-08T15:26:01.242Z,9.20
2017-11-08T15:28:28.723Z,9.30
2017-11-08T15:30:56.210Z,9.40
2017-11-08T15:33:23.692Z,9.50
2017-11-08T15:35:51.150Z,9.50
2017-11-08T15:38:18.610Z,9.60
2017-11-08T15:40:46.086Z,9.60
2017-11-08T15:43:13.626Z,9.60
2017-11-08T15:45:41.128Z,9.50
2017-11-08T15:48:08.582Z,9.50
2017-11-08T15:50:36.056Z,9.60
2017-11-08T15:53:04.279Z,9.60
2017-11-08T15:55:32.500Z,9.60
2017-11-08T15:57:59.968Z,9.60
2017-11-08T16:00:27.526Z,9.60
2017-11-08T16:02:56.349Z,9.50
2017-11-08T16:05:23.869Z,9.40
2017-11-08T16:07:51.326Z,9.50
2017-11-08T16:10:18.788Z,9.40
2017-11-08T16:12:46.260Z,9.50
2017-11-08T16:15:13.705Z,9.60
2017-11-08T16:17:41.952Z,9.70
2017-11-08T16:20:15.077Z,9.70
2017-11-08T16:22:43.322Z,9.50
2017-11-08T16:25:10.824Z,9.50
2017-11-08T16:27:38.386Z,9.40
2017-11-08T16:30:05.845Z,9.40
2017-11-08T16:32:33.304Z,9.40
2017-11-08T16:35:00.796Z,9.30
2017-11-08T16:37:28.264Z,9.30
2017-11-08T16:39:55.745Z,9.30
2017-11-08T16:42:23.186Z,9.30
2017-11-08T16:44:51.413Z,9.20
2017-11-08T16:47:18.900Z,9.20
2017-11-08T16:49:46.402Z,9.30
2017-11-08T16:52:13.921Z,9.30
2017-11-08T16:54:41.383Z,9.40
2017-11-08T16:57:09.616Z,9.30
2017-11-08T16:59:37.063Z,9.30
2017-11-08T17:02:04.542Z,9.30
2017-11-08T17:04:32.069Z,9.30
2017-11-08T17:06:59.559Z,9.40
2017-11-08T17:09:27.021Z,9.40
2017-11-08T17:11:54.481Z,9.20
2017-11-08T17:14:22.114Z,9.10
2017-11-08T17:16:50.359Z,9.10
2017-11-08T17:19:17.823Z,9.00
2017-11-08T17:21:45.351Z,9.10
2017-11-08T17:24:13.569Z,9.00
2017-11-08T17:26:41.079Z,9.00
2017-11-08T17:29:08.543Z,9.00
2017-11-08T17:31:36.028Z,9.00
2017-11-08T17:34:03.554Z,9.10
2017-11-08T17:36:31.038Z,9.00
2017-11-08T17:38:58.540Z,8.90
2017-11-08T17:41:26.038Z,8.90
2017-11-08T17:43:53.481Z,9.00
2017-11-08T17:46:21.000Z,9.10
2017-11-08T17:48:48.434Z,9.00
2017-11-08T17:51:15.997Z,8.90
2017-11-08T17:53:43.455Z,8.80
2017-11-08T17:56:10.917Z,8.90
2017-11-08T17:58:39.213Z,8.90
2017-11-08T18:01:07.475Z,8.90
2017-11-08T18:03:35.032Z,8.90
2017-11-08T18:06:02.536Z,9.00
2017-11-08T18:08:30.002Z,9.10
2017-11-08T18:10:57.439Z,9.20
2017-11-08T18:13:24.947Z,9.20
2017-11-08T18:15:52.419Z,9.10
2017-11-08T18:18:20.050Z,9.10
2017-11-08T18:20:47.488Z,9.10
2017-11-08T18:23:15.950Z,9.00
2017-11-08T18:25:43.427Z,9.00
2017-11-08T18:28:11.738Z,8.70
2017-11-08T18:30:39.334Z,8.70
2017-11-08T18:33:06.877Z,8.80
2017-11-08T18:35:34.383Z,8.90
2017-11-08T18:38:01.862Z,8.90
2017-11-08T18:40:29.665Z,8.80
2017-11-08T18:42:57.125Z,8.80
2017-11-08T18:45:24.652Z,8.70
2017-11-08T18:47:52.625Z,8.80
2017-11-08T18:50:20.161Z,8.70
2017-11-08T18:52:47.681Z,8.60
2017-11-08T18:55:15.263Z,8.60
2017-11-08T18:57:42.761Z,8.70
2017-11-08T19:00:10.274Z,8.70
2017-11-08T19:02:37.783Z,8.70
2017-11-08T19:05:05.273Z,8.70
2017-11-08T19:07:32.770Z,8.70
2017-11-08T19:10:00.297Z,8.70
2017-11-08T19:12:27.797Z,8.80
2017-11-08T19:14:55.264Z,8.90
2017-11-08T19:17:22.743Z,8.80
2017-11-08T19:19:50.177Z,8.90
2017-11-08T19:22:17.889Z,8.70
2017-11-08T19:24:45.531Z,8.80
2017-11-08T19:27:13.834Z,8.70
2017-11-08T19:29:41.539Z,8.60
2017-11-08T19:32:09.066Z,8.80
2017-11-08T19:34:36.568Z,8.90
2017-11-08T19:37:05.026Z,9.10
2017-11-08T19:39:33.377Z,9.10
2017-11-08T19:42:01.378Z,9.10
2017-11-08T19:44:28.827Z,9.20
2017-11-08T19:46:57.072Z,9.30
2017-11-08T19:49:24.528Z,9.30
2017-11-08T19:51:52.033Z,9.20
2017-11-08T19:54:19.542Z,9.20
2017-11-08T19:56:47.788Z,9.30
2017-11-08T19:59:15.274Z,9.30
2017-11-08T20:01:42.778Z,9.30
2017-11-08T20:04:11.045Z,9.20
2017-11-08T20:06:38.486Z,9.20
2017-11-08T20:09:06.047Z,9.10
2017-11-08T20:11:33.554Z,9.20
2017-11-08T20:14:01.035Z,9.20
2017-11-08T20:16:28.516Z,9.30
2017-11-08T20:18:56.034Z,9.30
2017-11-08T20:21:23.659Z,9.20
2017-11-08T20:23:52.106Z,9.00
2017-11-08T20:26:20.427Z,9.10
2017-11-08T20:28:47.872Z,9.00
2017-11-08T20:31:18.963Z,9.10
2017-11-08T20:33:46.437Z,9.10
2017-11-08T20:36:13.988Z,8.90
2017-11-08T20:38:41.428Z,8.90
2017-11-08T20:41:09.021Z,9.10
2017-11-08T20:43:36.561Z,9.10
2017-11-08T20:46:04.567Z,9.00
2017-11-08T20:48:32.042Z,8.90
2017-11-08T20:51:00.176Z,9.10
2017-11-08T20:53:28.390Z,9.00
2017-11-08T20:55:55.850Z,9.00
2017-11-08T20:58:23.318Z,9.00
2017-11-08T21:00:50.770Z,8.90
2017-11-08T21:03:18.259Z,8.90
2017-11-08T21:05:46.526Z,9.10
2017-11-08T21:08:14.032Z,9.10
2017-11-08T21:10:42.242Z,9.40
2017-11-08T21:13:09.715Z,9.40
2017-11-08T21:15:37.197Z,9.40
2017-11-08T21:18:04.662Z,9.30
2017-11-08T21:20:32.139Z,9.20
2017-11-08T21:22:59.594Z,9.10
2017-11-08T21:25:27.891Z,9.20
2017-11-08T21:27:57.197Z,9.30
2017-11-08T21:30:24.657Z,9.40
2017-11-08T21:32:52.146Z,9.50
2017-11-08T21:35:19.612Z,9.40
2017-11-08T21:37:47.192Z,9.50
2017-11-08T21:40:14.657Z,9.50
2017-11-08T21:42:42.165Z,9.40
2017-11-08T21:45:10.402Z,9.10
2017-11-08T21:47:38.153Z,9.10
2017-11-08T21:50:05.626Z,9.00
2017-11-08T21:52:33.090Z,9.00
2017-11-08T21:55:01.322Z,9.20
2017-11-08T21:57:28.795Z,9.20
2017-11-08T21:59:57.623Z,9.30
2017-11-08T22:02:28.130Z,9.30
2017-11-08T22:05:00.241Z,9.10
2017-11-08T22:07:28.704Z,9.20
2017-11-08T22:15:15.097Z,9.40
2017-11-08T22:17:43.464Z,9.40
2017-11-08T22:20:11.139Z,9.40
2017-11-08T22:22:38.681Z,9.30
2017-11-08T22:25:06.234Z,9.30
2017-11-08T22:27:33.864Z,9.20
2017-11-08T22:30:01.442Z,9.10
2017-11-08T22:32:29.745Z,9.00
2017-11-08T22:34:57.205Z,9.00
2017-11-08T22:37:24.667Z,9.20
2017-11-08T22:39:52.133Z,9.30
2017-11-08T22:42:19.632Z,9.30
2017-11-08T22:44:47.945Z,9.30
2017-11-08T22:47:16.142Z,9.30
2017-11-08T22:49:43.657Z,9.30
2017-11-08T22:52:12.288Z,9.00
2017-11-08T22:54:40.550Z,9.10
2017-11-08T22:57:08.978Z,9.10
2017-11-08T22:59:38.719Z,9.20
2017-11-08T23:02:07.664Z,9.10
2017-11-08T23:04:35.415Z,9.10
2017-11-08T23:07:03.652Z,9.20
2017-11-08T23:09:31.118Z,9.20
2017-11-08T23:11:58.634Z,9.10
2017-11-08T23:14:26.137Z,9.20
2017-11-08T23:16:54.364Z,9.30
2017-11-08T23:19:21.827Z,9.30
2017-11-08T23:21:49.294Z,9.30
2017-11-08T23:24:16.753Z,9.30
2017-11-08T23:26:44.248Z,9.40
2017-11-08T23:29:11.757Z,9.50
2017-11-08T23:31:39.237Z,9.40
2017-11-08T23:34:06.694Z,9.30
2017-11-08T23:36:34.189Z,9.40
2017-11-08T23:39:02.538Z,9.50
2017-11-08T23:41:29.989Z,9.40
2017-11-08T23:43:58.205Z,9.50
2017-11-08T23:46:25.663Z,9.50
2017-11-08T23:48:53.129Z,9.40
2017-11-08T23:51:21.376Z,9.30
2017-11-08T23:53:48.838Z,9.30
2017-11-08T23:56:17.257Z,9.40
2017-11-08T23:58:44.769Z,9.40
